Time;durP1;ratioP1;P1;durP2;ratioP2;P2;SDS_P1;SDS_P2;PMS_P1;PMS_P2;Temp;Humidity;BMP_temperature;BMP_pressure;BME280_temperature;BME280_humidity;BME280_pressure;Samples;Min_cycle;Max_cycle;Signal;HPM_P1;HPM_P2
2022/08/20 00:01:19;;;;;;;2.30;2.10;;;;;;;;;;4181549;28;20044;-65
2022/08/20 00:03:27;;;;;;;2.72;2.50;;;;;;;;;;4181647;28;20414;-65
2022/08/20 00:05:30;;;;;;;2.60;2.40;;;;;;;;;;4181923;28;20427;-64
2022/08/20 00:07:33;;;;;;;3.42;2.38;;;;;;;;;;4182276;28;20013;-64
2022/08/20 00:09:34;;;;;;;3.05;2.72;;;;;;;;;;4181604;28;20538;-65
2022/08/20 00:11:35;;;;;;;3.42;2.20;;;;;;;;;;4181295;28;20064;-65
2022/08/20 00:13:38;;;;;;;2.50;2.30;;;;;;;;;;4164053;28;20493;-65
2022/08/20 00:15:39;;;;;;;2.95;2.65;;;;;;;;;;4181578;28;20029;-65
2022/08/20 00:17:40;;;;;;;3.30;2.50;;;;;;;;;;4181650;28;20121;-65
2022/08/20 00:19:43;;;;;;;2.88;2.67;;;;;;;;;;4181508;28;20025;-63
2022/08/20 00:21:44;;;;;;;3.08;2.78;;;;;;;;;;4181132;28;20028;-64
2022/08/20 00:23:46;;;;;;;2.97;2.70;;;;;;;;;;4181388;28;20033;-65
2022/08/20 00:25:47;;;;;;;2.58;2.38;;;;;;;;;;4181172;28;20033;-65
2022/08/20 00:27:48;;;;;;;3.50;2.35;;;;;;;;;;4181189;28;20419;-64
2022/08/20 00:29:49;;;;;;;3.20;2.58;;;;;;;;;;4180977;28;20036;-67
2022/08/20 00:31:50;;;;;;;3.30;2.47;;;;;;;;;;4181406;28;20112;-66
2022/08/20 00:33:57;;;;;;;2.63;2.40;;;;;;;;;;4163494;28;20120;-65
2022/08/20 00:36:08;;;;;;;3.33;2.45;;;;;;;;;;4181256;28;20041;-66
2022/08/20 00:38:12;;;;;;;2.92;2.72;;;;;;;;;;4181465;28;20090;-66
2022/08/20 00:40:15;;;;;;;2.75;2.53;;;;;;;;;;4180928;28;20350;-66
2022/08/20 00:42:15;;;;;;;2.83;2.58;;;;;;;;;;4180993;28;20163;-66
2022/08/20 00:44:18;;;;;;;3.00;2.70;;;;;;;;;;4180913;28;20045;-66
2022/08/20 00:46:23;;;;;;;4.47;2.88;;;;;;;;;;4181504;28;20476;-66
2022/08/20 00:48:32;;;;;;;4.03;2.70;;;;;;;;;;4181055;28;20044;-66
2022/08/20 00:50:35;;;;;;;5.15;3.00;;;;;;;;;;4180799;28;20021;-66
2022/08/20 00:52:37;;;;;;;2.85;2.55;;;;;;;;;;4181017;28;20087;-65
2022/08/20 00:54:38;;;;;;;2.92;2.65;;;;;;;;;;4181462;28;20067;-65
2022/08/20 00:56:39;;;;;;;3.10;2.80;;;;;;;;;;4181008;28;20461;-65
2022/08/20 00:58:41;;;;;;;3.03;2.80;;;;;;;;;;4180603;28;20542;-64
2022/08/20 01:00:44;;;;;;;3.22;2.70;;;;;;;;;;4181053;28;20017;-64
2022/08/20 01:02:49;;;;;;;2.30;2.10;;;;;;;;;;4180780;28;20033;-64
2022/08/20 01:04:53;;;;;;;;;;;;;;;;;;4181787;28;20082;-64
2022/08/20 01:06:57;;;;;;;3.13;2.83;;;;;;;;;;4180680;28;19905;-64
2022/08/20 01:09:00;;;;;;;2.85;2.65;;;;;;;;;;4163488;28;20049;-64
2022/08/20 01:12:01;;;;;;;3.20;2.85;;;;;;;;;;4179627;28;20041;-64
2022/08/20 01:13:34;;;;;;;3.25;2.95;;;;;;;;;;4168226;28;20033;-64
2022/08/20 01:15:38;;;;;;;3.28;2.80;;;;;;;;;;4181353;28;20031;-64
2022/08/20 01:17:43;;;;;;;3.85;3.08;;;;;;;;;;4180868;28;20447;-65
2022/08/20 01:19:50;;;;;;;3.45;2.70;;;;;;;;;;4180807;28;20087;-65
2022/08/20 01:21:50;;;;;;;2.88;2.50;;;;;;;;;;4180719;28;20087;-64
2022/08/20 01:23:59;;;;;;;3.88;2.72;;;;;;;;;;4180647;28;20045;-65
2022/08/20 01:26:03;;;;;;;3.38;3.00;;;;;;;;;;4179743;28;20033;-65
2022/08/20 01:28:04;;;;;;;2.90;2.70;;;;;;;;;;4180646;28;20106;-64
2022/08/20 01:30:05;;;;;;;3.00;2.70;;;;;;;;;;4179632;28;20258;-65
2022/08/20 01:32:06;;;;;;;3.17;2.50;;;;;;;;;;4180429;28;20465;-65
2022/08/20 01:34:09;;;;;;;3.00;2.80;;;;;;;;;;4181015;28;20031;-65
2022/08/20 01:36:11;;;;;;;3.33;3.03;;;;;;;;;;4181202;28;20029;-65
2022/08/20 01:38:12;;;;;;;4.55;2.80;;;;;;;;;;4180414;28;20025;-65
2022/08/20 01:40:19;;;;;;;3.88;2.92;;;;;;;;;;4180097;28;20086;-65
2022/08/20 01:42:26;;;;;;;3.10;2.72;;;;;;;;;;4180503;28;20036;-63
2022/08/20 01:44:28;;;;;;;4.10;2.85;;;;;;;;;;4180297;28;20041;-65
2022/08/20 01:46:31;;;;;;;3.13;2.83;;;;;;;;;;4180570;28;20102;-65
2022/08/20 01:48:32;;;;;;;3.78;2.90;;;;;;;;;;4179794;28;20098;-65
2022/08/20 01:50:35;;;;;;;2.70;2.50;;;;;;;;;;4179902;28;20479;-65
2022/08/20 01:52:47;;;;;;;2.60;2.40;;;;;;;;;;4180398;28;20045;-65
2022/08/20 01:54:51;;;;;;;3.10;2.80;;;;;;;;;;4182556;28;20098;-64
2022/08/20 01:57:10;;;;;;;2.88;2.63;;;;;;;;;;4183634;28;20106;-65
2022/08/20 01:59:11;;;;;;;3.10;2.80;;;;;;;;;;4183371;28;20382;-65
2022/08/20 02:01:23;;;;;;;3.65;2.83;;;;;;;;;;4183224;28;20095;-65
2022/08/20 02:03:26;;;;;;;2.80;2.60;;;;;;;;;;4183517;28;20040;-65
2022/08/20 02:05:28;;;;;;;3.15;2.70;;;;;;;;;;4183295;28;20033;-65
2022/08/20 02:07:31;;;;;;;2.88;2.55;;;;;;;;;;4183471;28;20037;-65
2022/08/20 02:09:36;;;;;;;3.08;2.80;;;;;;;;;;4183953;28;20546;-65
2022/08/20 02:11:37;;;;;;;3.03;2.70;;;;;;;;;;4183228;28;20083;-65
2022/08/20 02:13:39;;;;;;;2.88;2.55;;;;;;;;;;4183400;28;20045;-65
2022/08/20 02:15:43;;;;;;;2.60;2.40;;;;;;;;;;4183362;28;20037;-65
2022/08/20 02:17:44;;;;;;;2.50;2.30;;;;;;;;;;4183358;28;20495;-64
2022/08/20 02:19:49;;;;;;;2.55;2.35;;;;;;;;;;4183878;28;20021;-64
2022/08/20 02:21:53;;;;;;;2.60;2.40;;;;;;;;;;4183254;28;20539;-65
2022/08/20 02:23:54;;;;;;;3.30;2.45;;;;;;;;;;4183307;28;20033;-65
2022/08/20 02:25:55;;;;;;;2.85;2.65;;;;;;;;;;4183282;28;20542;-65
2022/08/20 02:27:56;;;;;;;2.55;2.35;;;;;;;;;;4183151;28;20064;-65
2022/08/20 02:29:57;;;;;;;2.45;2.25;;;;;;;;;;4183081;28;20036;-65
2022/08/20 02:31:58;;;;;;;2.80;2.60;;;;;;;;;;4183032;28;20048;-65
2022/08/20 02:33:59;;;;;;;2.78;2.40;;;;;;;;;;4183467;28;20032;-65
2022/08/20 02:36:00;;;;;;;2.40;2.20;;;;;;;;;;4183197;28;20029;-65
2022/08/20 02:38:01;;;;;;;2.53;2.13;;;;;;;;;;4183075;28;20037;-65
2022/08/20 02:40:06;;;;;;;2.75;2.55;;;;;;;;;;4182599;28;20041;-64
2022/08/20 02:42:08;;;;;;;2.55;2.35;;;;;;;;;;4180923;28;20464;-65
2022/08/20 02:44:09;;;;;;;2.60;2.40;;;;;;;;;;4182970;28;20092;-64
2022/08/20 02:46:10;;;;;;;2.80;2.50;;;;;;;;;;4182909;28;20132;-65
2022/08/20 02:48:19;;;;;;;2.60;2.40;;;;;;;;;;4182695;28;20477;-64
2022/08/20 02:50:24;;;;;;;2.63;2.42;;;;;;;;;;4182757;28;20091;-65
2022/08/20 02:52:24;;;;;;;;;;;;;;;;;;4183246;28;20468;-65
2022/08/20 02:54:28;;;;;;;3.08;2.22;;;;;;;;;;4182725;28;19958;-65
2022/08/20 02:56:29;;;;;;;2.83;2.10;;;;;;;;;;4183468;28;20025;-65
2022/08/20 02:58:30;;;;;;;2.70;2.50;;;;;;;;;;4183097;28;20076;-65
2022/08/20 03:00:31;;;;;;;2.90;2.60;;;;;;;;;;4182560;28;20118;-65
2022/08/20 03:02:32;;;;;;;2.58;2.38;;;;;;;;;;4182221;28;20091;-65
2022/08/20 03:04:33;;;;;;;2.55;2.35;;;;;;;;;;4182904;28;20028;-65
2022/08/20 03:06:34;;;;;;;2.30;2.20;;;;;;;;;;4181568;28;20025;-65
2022/08/20 03:08:35;;;;;;;2.88;2.60;;;;;;;;;;4182482;28;20048;-65
2022/08/20 03:10:37;;;;;;;2.30;2.10;;;;;;;;;;4182294;28;20037;-65
2022/08/20 03:12:38;;;;;;;2.40;2.20;;;;;;;;;;4182650;28;20041;-65
2022/08/20 03:14:39;;;;;;;2.50;2.30;;;;;;;;;;4182487;28;20531;-65
2022/08/20 03:16:40;;;;;;;2.80;2.60;;;;;;;;;;4182519;28;20032;-65
2022/08/20 03:18:45;;;;;;;2.65;2.45;;;;;;;;;;4182138;28;20029;-65
2022/08/20 03:20:47;;;;;;;2.53;2.33;;;;;;;;;;4182102;28;20032;-65
2022/08/20 03:22:48;;;;;;;2.65;2.45;;;;;;;;;;4182479;28;20036;-65
2022/08/20 03:24:49;;;;;;;2.42;2.22;;;;;;;;;;4182447;28;20082;-65
2022/08/20 03:26:52;;;;;;;2.50;2.30;;;;;;;;;;4182245;28;20456;-65
2022/08/20 03:28:53;;;;;;;2.65;2.45;;;;;;;;;;4182165;28;20443;-65
2022/08/20 03:30:55;;;;;;;2.25;2.05;;;;;;;;;;4182608;28;20021;-65
2022/08/20 03:32:57;;;;;;;2.78;2.58;;;;;;;;;;4182388;28;20041;-65
2022/08/20 03:34:58;;;;;;;2.70;2.50;;;;;;;;;;4182365;28;20435;-65
2022/08/20 03:36:59;;;;;;;2.20;2.00;;;;;;;;;;4182153;28;20032;-65
2022/08/20 03:39:03;;;;;;;2.50;2.30;;;;;;;;;;4182204;28;20074;-65
2022/08/20 03:41:04;;;;;;;2.70;2.50;;;;;;;;;;4181832;28;20037;-65
2022/08/20 03:43:07;;;;;;;2.40;2.20;;;;;;;;;;4182482;28;20498;-65
2022/08/20 03:45:09;;;;;;;2.15;2.03;;;;;;;;;;4182079;28;20036;-66
2022/08/20 03:47:10;;;;;;;2.50;2.30;;;;;;;;;;4182118;28;20037;-65
2022/08/20 03:49:10;;;;;;;3.30;2.00;;;;;;;;;;4181702;28;20068;-65
2022/08/20 03:51:11;;;;;;;2.03;1.92;;;;;;;;;;4182126;28;20017;-65
2022/08/20 03:53:13;;;;;;;2.50;2.30;;;;;;;;;;4182563;28;20100;-66
2022/08/20 03:55:14;;;;;;;2.42;2.22;;;;;;;;;;4181999;28;20086;-65
2022/08/20 03:57:15;;;;;;;2.33;2.13;;;;;;;;;;4181649;28;20098;-65
2022/08/20 03:59:19;;;;;;;2.58;2.30;;;;;;;;;;4182354;28;20480;-65
2022/08/20 04:01:20;;;;;;;3.10;2.20;;;;;;;;;;4181621;28;20087;-65
2022/08/20 04:03:21;;;;;;;3.47;2.10;;;;;;;;;;4164281;28;20429;-64
2022/08/20 04:05:26;;;;;;;2.28;2.08;;;;;;;;;;4182283;28;20082;-65
2022/08/20 04:07:26;;;;;;;;;;;;;;;;;;4182737;28;20095;-65
2022/08/20 04:09:28;;;;;;;2.53;2.33;;;;;;;;;;4181235;28;19912;-65
2022/08/20 04:11:32;;;;;;;3.42;2.40;;;;;;;;;;4181210;28;20067;-65
2022/08/20 04:13:33;;;;;;;2.13;1.98;;;;;;;;;;4181550;28;20431;-65
2022/08/20 04:15:35;;;;;;;2.45;2.25;;;;;;;;;;4181565;28;20029;-65
2022/08/20 04:17:40;;;;;;;2.17;1.98;;;;;;;;;;4180192;28;20029;-65
2022/08/20 04:19:43;;;;;;;2.30;2.10;;;;;;;;;;4181750;28;20060;-65
2022/08/20 04:21:47;;;;;;;2.17;1.98;;;;;;;;;;4181202;28;20477;-65
2022/08/20 04:23:48;;;;;;;2.30;2.10;;;;;;;;;;4181483;28;20137;-65
2022/08/20 04:25:49;;;;;;;2.42;2.20;;;;;;;;;;4181979;28;20522;-66
2022/08/20 04:27:50;;;;;;;2.17;2.08;;;;;;;;;;4181383;28;20445;-66
2022/08/20 04:29:50;;;;;;;2.63;2.42;;;;;;;;;;4180707;28;20045;-65
2022/08/20 04:31:52;;;;;;;2.28;2.08;;;;;;;;;;4181902;28;20032;-65
2022/08/20 04:33:53;;;;;;;2.03;1.92;;;;;;;;;;4181916;28;20392;-65
2022/08/20 04:35:54;;;;;;;2.10;1.90;;;;;;;;;;4181886;28;20024;-65
2022/08/20 04:38:19;;;;;;;2.35;2.15;;;;;;;;;;4181374;28;20563;-65
2022/08/20 04:42:40;;;;;;;2.25;2.00;;;;;;;;;;4181968;28;20020;-65
2022/08/20 04:44:40;;;;;;;2.30;2.05;;;;;;;;;;4181260;28;20033;-65
2022/08/20 04:46:42;;;;;;;2.30;2.10;;;;;;;;;;4181098;28;20033;-65
2022/08/20 04:48:43;;;;;;;2.17;1.98;;;;;;;;;;4180861;28;20094;-65
2022/08/20 04:50:45;;;;;;;2.63;2.25;;;;;;;;;;4180658;28;20479;-65
2022/08/20 04:52:47;;;;;;;2.67;2.25;;;;;;;;;;4181083;28;20439;-65
2022/08/20 04:54:50;;;;;;;1.80;1.70;;;;;;;;;;4178201;28;20052;-65
2022/08/20 04:57:00;;;;;;;2.30;2.10;;;;;;;;;;4181062;28;20132;-65
2022/08/20 04:59:01;;;;;;;2.13;2.00;;;;;;;;;;4180869;28;20040;-64
2022/08/20 05:01:04;;;;;;;2.30;2.10;;;;;;;;;;4181101;28;20059;-65
2022/08/20 05:03:07;;;;;;;2.35;2.15;;;;;;;;;;4175456;28;20048;-64
2022/08/20 05:05:09;;;;;;;2.20;2.00;;;;;;;;;;4180920;28;20099;-65
2022/08/20 05:07:10;;;;;;;2.30;2.10;;;;;;;;;;4180718;28;20102;-65
2022/08/20 05:09:14;;;;;;;1.88;1.77;;;;;;;;;;4180835;28;20059;-65
2022/08/20 05:11:15;;;;;;;1.83;1.73;;;;;;;;;;4180619;28;20025;-65
2022/08/20 05:13:16;;;;;;;3.13;2.40;;;;;;;;;;4180226;28;20044;-65
2022/08/20 05:15:17;;;;;;;2.30;2.00;;;;;;;;;;4181434;28;20025;-65
2022/08/20 05:17:18;;;;;;;2.30;2.10;;;;;;;;;;4180711;28;20048;-65
2022/08/20 05:19:22;;;;;;;2.83;2.05;;;;;;;;;;4180672;28;20025;-65
2022/08/20 05:21:23;;;;;;;3.17;2.08;;;;;;;;;;4180895;28;20079;-64
2022/08/20 05:23:24;;;;;;;2.15;2.05;;;;;;;;;;4180630;28;20480;-66
2022/08/20 05:25:28;;;;;;;2.15;1.98;;;;;;;;;;4180637;28;20393;-65
2022/08/20 05:27:29;;;;;;;2.95;2.30;;;;;;;;;;4180640;28;20468;-65
2022/08/20 05:29:29;;;;;;;2.08;1.88;;;;;;;;;;4179610;28;20094;-65
2022/08/20 05:31:33;;;;;;;2.00;1.90;;;;;;;;;;4180160;28;20037;-65
2022/08/20 05:33:35;;;;;;;1.88;1.75;;;;;;;;;;4180340;28;20396;-66
2022/08/20 05:35:37;;;;;;;2.10;2.00;;;;;;;;;;4180473;28;20091;-65
2022/08/20 05:37:40;;;;;;;2.22;2.10;;;;;;;;;;4180176;28;20062;-65
2022/08/20 05:39:42;;;;;;;2.25;1.88;;;;;;;;;;4180557;28;20037;-64
2022/08/20 05:41:43;;;;;;;2.08;1.88;;;;;;;;;;4180091;28;20041;-65
2022/08/20 05:43:44;;;;;;;2.20;2.00;;;;;;;;;;4180834;28;20453;-65
2022/08/20 05:45:45;;;;;;;2.35;2.15;;;;;;;;;;4180378;28;20029;-65
2022/08/20 05:47:53;;;;;;;2.28;2.03;;;;;;;;;;4180842;28;20033;-65
2022/08/20 05:49:54;;;;;;;2.30;2.10;;;;;;;;;;4179962;28;20040;-66
2022/08/20 05:51:54;;;;;;;2.50;2.30;;;;;;;;;;4180279;28;20033;-65
2022/08/20 05:53:56;;;;;;;2.03;1.92;;;;;;;;;;4180534;28;20068;-65
2022/08/20 05:56:00;;;;;;;2.22;2.03;;;;;;;;;;4180795;28;20025;-65
2022/08/20 05:58:01;;;;;;;2.13;2.03;;;;;;;;;;4180271;28;20376;-65
2022/08/20 06:00:05;;;;;;;2.45;2.10;;;;;;;;;;4179651;28;20099;-65
2022/08/20 06:04:23;;;;;;;2.78;2.00;;;;;;;;;;4180449;28;20029;-65
2022/08/20 06:04:30;;;;;;;2.20;1.88;;;;;;;;;;4180710;28;20441;-65
2022/08/20 06:06:34;;;;;;;2.50;2.20;;;;;;;;;;4180295;28;20048;-66
2022/08/20 06:08:38;;;;;;;2.42;2.22;;;;;;;;;;4180121;28;20029;-65
2022/08/20 06:10:42;;;;;;;2.88;2.35;;;;;;;;;;4180271;28;20078;-65
2022/08/20 06:12:44;;;;;;;2.03;1.90;;;;;;;;;;4179833;28;20047;-65
2022/08/20 06:14:46;;;;;;;2.10;1.90;;;;;;;;;;4180057;28;20547;-65
2022/08/20 06:16:47;;;;;;;2.22;2.03;;;;;;;;;;4177350;28;20094;-65
2022/08/20 06:18:50;;;;;;;2.35;2.15;;;;;;;;;;4180056;28;20036;-65
2022/08/20 06:20:51;;;;;;;1.80;1.70;;;;;;;;;;4178847;28;20033;-65
2022/08/20 06:22:52;;;;;;;2.65;2.45;;;;;;;;;;4179995;28;20029;-65
2022/08/20 06:24:56;;;;;;;1.92;1.83;;;;;;;;;;4179628;28;20037;-65
2022/08/20 06:26:58;;;;;;;2.03;1.83;;;;;;;;;;4180227;28;20029;-66
2022/08/20 06:29:02;;;;;;;2.10;2.00;;;;;;;;;;4180415;28;20041;-65
2022/08/20 06:31:03;;;;;;;1.90;1.80;;;;;;;;;;4174336;28;20087;-65
2022/08/20 06:33:04;;;;;;;2.65;2.10;;;;;;;;;;4179801;28;20044;-65
2022/08/20 06:35:06;;;;;;;1.90;1.80;;;;;;;;;;4179894;28;20064;-65
2022/08/20 06:37:14;;;;;;;2.40;2.20;;;;;;;;;;4180407;28;20438;-65
2022/08/20 06:39:15;;;;;;;1.73;1.63;;;;;;;;;;4179994;28;20059;-65
2022/08/20 06:41:16;;;;;;;2.22;2.08;;;;;;;;;;4182915;28;20421;-65
2022/08/20 06:43:17;;;;;;;2.20;2.00;;;;;;;;;;4182504;28;20179;-65
2022/08/20 06:45:25;;;;;;;2.20;2.00;;;;;;;;;;4182875;28;20388;-65
2022/08/20 06:47:26;;;;;;;2.22;2.08;;;;;;;;;;4183455;28;20017;-65
2022/08/20 06:49:27;;;;;;;2.20;2.00;;;;;;;;;;4182571;28;20499;-65
2022/08/20 06:51:28;;;;;;;2.03;1.92;;;;;;;;;;4182608;28;20037;-65
2022/08/20 06:53:29;;;;;;;2.05;1.95;;;;;;;;;;4182898;28;20029;-65
2022/08/20 06:55:30;;;;;;;1.98;1.80;;;;;;;;;;4182532;28;20039;-65
2022/08/20 06:57:33;;;;;;;1.70;1.60;;;;;;;;;;4182439;28;20115;-65
2022/08/20 06:59:37;;;;;;;1.90;1.80;;;;;;;;;;4182638;28;20095;-65
2022/08/20 07:01:38;;;;;;;1.63;1.52;;;;;;;;;;4182475;28;20050;-66
2022/08/20 07:03:39;;;;;;;2.20;2.00;;;;;;;;;;4183091;28;20039;-65
2022/08/20 07:05:41;;;;;;;1.75;1.65;;;;;;;;;;4182484;28;20036;-65
2022/08/20 07:07:46;;;;;;;2.20;2.10;;;;;;;;;;4182562;28;20025;-66
2022/08/20 07:09:47;;;;;;;2.08;1.88;;;;;;;;;;4181733;28;20045;-65
2022/08/20 07:11:48;;;;;;;2.80;2.15;;;;;;;;;;4176717;28;20342;-65
2022/08/20 07:13:49;;;;;;;2.45;2.25;;;;;;;;;;4181942;28;20039;-65
2022/08/20 07:15:49;;;;;;;2.17;2.00;;;;;;;;;;4182942;28;20021;-66
2022/08/20 07:17:52;;;;;;;2.20;1.83;;;;;;;;;;4182353;28;20480;-65
2022/08/20 07:19:52;;;;;;;1.92;1.83;;;;;;;;;;4182064;28;20047;-65
2022/08/20 07:21:53;;;;;;;2.03;1.85;;;;;;;;;;4179506;28;20094;-65
2022/08/20 07:23:54;;;;;;;1.90;1.80;;;;;;;;;;4182763;28;20017;-65
2022/08/20 07:25:55;;;;;;;2.13;1.92;;;;;;;;;;4182182;28;20436;-66
2022/08/20 07:28:19;;;;;;;1.85;1.75;;;;;;;;;;4182228;28;20037;-65
2022/08/20 07:32:45;;;;;;;1.90;1.70;;;;;;;;;;4182953;28;20028;-65
2022/08/20 07:34:46;;;;;;;1.83;1.73;;;;;;;;;;4182346;28;20045;-65
2022/08/20 07:36:47;;;;;;;2.42;2.22;;;;;;;;;;4182858;28;20369;-65
2022/08/20 07:38:49;;;;;;;1.85;1.75;;;;;;;;;;4182284;28;20041;-65
2022/08/20 07:40:51;;;;;;;2.20;2.00;;;;;;;;;;4164427;28;20099;-66
2022/08/20 07:42:56;;;;;;;2.38;2.10;;;;;;;;;;4182026;28;20033;-65
2022/08/20 07:44:57;;;;;;;1.95;1.80;;;;;;;;;;4182067;28;20522;-65
2022/08/20 07:46:58;;;;;;;2.00;1.90;;;;;;;;;;4182085;28;20039;-65
2022/08/20 07:48:59;;;;;;;1.92;1.83;;;;;;;;;;4181879;28;20477;-65
2022/08/20 07:51:04;;;;;;;2.13;1.77;;;;;;;;;;4180909;28;20037;-65
2022/08/20 07:53:07;;;;;;;;;;;;;;;;;;4182091;28;20098;-65
2022/08/20 07:55:09;;;;;;;1.80;1.65;;;;;;;;;;4182475;28;19950;-65
2022/08/20 07:57:17;;;;;;;2.30;2.10;;;;;;;;;;4181944;28;20083;-65
2022/08/20 07:59:19;;;;;;;2.00;1.80;;;;;;;;;;4179251;28;20107;-65
2022/08/20 08:01:24;;;;;;;1.95;1.85;;;;;;;;;;4181520;28;20037;-65
2022/08/20 08:03:25;;;;;;;;;;;;;;;;;;4182512;28;20079;-65
2022/08/20 08:05:30;;;;;;;2.17;2.00;;;;;;;;;;4181533;28;19951;-65
2022/08/20 08:07:32;;;;;;;1.70;1.60;;;;;;;;;;4181824;28;20037;-65
2022/08/20 08:09:33;;;;;;;1.85;1.73;;;;;;;;;;4181279;28;20037;-65
2022/08/20 08:11:36;;;;;;;2.30;2.10;;;;;;;;;;4181486;28;20098;-65
2022/08/20 08:13:37;;;;;;;2.25;2.05;;;;;;;;;;4182173;28;20024;-65
2022/08/20 08:15:40;;;;;;;2.05;1.85;;;;;;;;;;4181684;28;20431;-65
2022/08/20 08:17:43;;;;;;;2.50;1.80;;;;;;;;;;4181722;28;20032;-64
2022/08/20 08:19:47;;;;;;;1.77;1.67;;;;;;;;;;4181716;28;20419;-65
2022/08/20 08:21:51;;;;;;;2.90;2.40;;;;;;;;;;4181199;28;20098;-65
2022/08/20 08:23:52;;;;;;;2.33;2.13;;;;;;;;;;4181711;28;20483;-65
2022/08/20 08:25:53;;;;;;;2.33;2.13;;;;;;;;;;4181197;28;20037;-65
2022/08/20 08:27:54;;;;;;;1.95;1.85;;;;;;;;;;4181457;28;20559;-65
2022/08/20 08:29:55;;;;;;;2.20;2.00;;;;;;;;;;4180924;28;20045;-65
2022/08/20 08:31:56;;;;;;;2.22;2.10;;;;;;;;;;4181267;28;20033;-65
2022/08/20 08:33:57;;;;;;;3.15;1.88;;;;;;;;;;4181293;28;20063;-65
2022/08/20 08:36:04;;;;;;;2.28;2.08;;;;;;;;;;4181260;28;20036;-65
2022/08/20 08:38:05;;;;;;;2.25;2.10;;;;;;;;;;4181282;28;20041;-65
2022/08/20 08:40:07;;;;;;;1.98;1.88;;;;;;;;;;4180884;28;20029;-65
2022/08/20 08:42:19;;;;;;;2.25;2.13;;;;;;;;;;4181346;28;20059;-65
2022/08/20 08:44:23;;;;;;;2.20;2.03;;;;;;;;;;4181495;28;20407;-65
2022/08/20 08:46:26;;;;;;;2.40;2.20;;;;;;;;;;4181297;28;20484;-65
2022/08/20 08:48:31;;;;;;;2.10;1.90;;;;;;;;;;4181006;28;20266;-65
2022/08/20 08:50:38;;;;;;;2.30;2.10;;;;;;;;;;4180852;28;20049;-65
2022/08/20 08:52:41;;;;;;;1.98;1.88;;;;;;;;;;4181054;28;20040;-65
2022/08/20 08:54:46;;;;;;;3.20;2.03;;;;;;;;;;4181226;28;20415;-65
2022/08/20 08:56:47;;;;;;;2.13;1.80;;;;;;;;;;4181185;28;20075;-65
2022/08/20 08:58:48;;;;;;;2.40;2.20;;;;;;;;;;4180888;28;20045;-65
2022/08/20 09:00:49;;;;;;;2.33;2.13;;;;;;;;;;4180518;28;20049;-66
2022/08/20 09:02:58;;;;;;;2.30;2.10;;;;;;;;;;4180782;28;20068;-65
2022/08/20 09:05:00;;;;;;;2.28;2.17;;;;;;;;;;4180431;28;20037;-65
2022/08/20 09:07:03;;;;;;;2.05;1.90;;;;;;;;;;4180893;28;20431;-64
2022/08/20 09:09:05;;;;;;;2.35;2.15;;;;;;;;;;4180824;28;20045;-65
2022/08/20 09:11:07;;;;;;;2.50;2.30;;;;;;;;;;4180584;28;20138;-65
2022/08/20 09:13:08;;;;;;;2.30;1.80;;;;;;;;;;4180787;28;20099;-66
2022/08/20 09:15:09;;;;;;;2.30;2.10;;;;;;;;;;4180739;28;20477;-66
2022/08/20 09:17:10;;;;;;;2.17;1.98;;;;;;;;;;4181384;28;20024;-65
2022/08/20 09:19:11;;;;;;;2.30;2.10;;;;;;;;;;4180886;28;20025;-65
2022/08/20 09:21:13;;;;;;;2.25;2.05;;;;;;;;;;4180498;28;20488;-65
2022/08/20 09:23:14;;;;;;;2.30;2.05;;;;;;;;;;4180690;28;20033;-65
2022/08/20 09:25:15;;;;;;;3.08;1.90;;;;;;;;;;4180634;28;20033;-65
2022/08/20 09:27:17;;;;;;;2.00;1.90;;;;;;;;;;4180799;28;20155;-65
2022/08/20 09:29:17;;;;;;;2.40;2.20;;;;;;;;;;4180801;28;20439;-65
2022/08/20 09:31:18;;;;;;;2.70;2.20;;;;;;;;;;4179928;28;20041;-65
2022/08/20 09:33:19;;;;;;;2.03;1.92;;;;;;;;;;4180558;28;20087;-65
2022/08/20 09:35:20;;;;;;;1.85;1.75;;;;;;;;;;4180605;28;20051;-65
2022/08/20 09:37:22;;;;;;;2.33;2.13;;;;;;;;;;4180023;28;20029;-64
2022/08/20 09:39:25;;;;;;;2.33;2.13;;;;;;;;;;4180549;28;20063;-64
2022/08/20 09:41:26;;;;;;;2.35;2.15;;;;;;;;;;4179939;28;20090;-65
2022/08/20 09:43:30;;;;;;;2.15;1.60;;;;;;;;;;4180430;28;20484;-65
2022/08/20 09:45:31;;;;;;;1.95;1.85;;;;;;;;;;4180616;28;20029;-65
2022/08/20 09:47:32;;;;;;;1.70;1.60;;;;;;;;;;4180529;28;20550;-65
2022/08/20 09:49:32;;;;;;;2.00;1.90;;;;;;;;;;4180324;28;20091;-66
2022/08/20 09:51:33;;;;;;;1.85;1.67;;;;;;;;;;4180223;28;20056;-65
2022/08/20 09:53:34;;;;;;;1.80;1.70;;;;;;;;;;4180385;28;20025;-65
2022/08/20 09:55:37;;;;;;;2.35;1.95;;;;;;;;;;4180605;28;20067;-65
2022/08/20 09:57:40;;;;;;;2.10;1.90;;;;;;;;;;4180353;28;20025;-66
2022/08/20 09:59:49;;;;;;;2.00;1.90;;;;;;;;;;4180727;28;20110;-63
2022/08/20 10:01:50;;;;;;;1.90;1.80;;;;;;;;;;4180590;28;20094;-65
2022/08/20 10:03:54;;;;;;;2.20;2.10;;;;;;;;;;4180357;28;20091;-65
2022/08/20 10:05:58;;;;;;;2.28;2.08;;;;;;;;;;4180443;28;20432;-65
2022/08/20 10:07:59;;;;;;;2.08;1.98;;;;;;;;;;4180387;28;20041;-65
2022/08/20 10:10:04;;;;;;;2.20;2.00;;;;;;;;;;4179947;28;20036;-65
2022/08/20 10:12:05;;;;;;;2.05;1.80;;;;;;;;;;4180376;28;20029;-65
2022/08/20 10:14:07;;;;;;;2.20;2.00;;;;;;;;;;4180268;28;20435;-65
2022/08/20 10:16:08;;;;;;;2.08;1.95;;;;;;;;;;4183231;28;20110;-65
2022/08/20 10:18:09;;;;;;;2.17;2.08;;;;;;;;;;4183484;28;20040;-66
2022/08/20 10:20:11;;;;;;;2.10;1.90;;;;;;;;;;4183035;28;20037;-65
2022/08/20 10:22:15;;;;;;;2.58;2.20;;;;;;;;;;4183726;28;20033;-65
2022/08/20 10:24:16;;;;;;;1.95;1.85;;;;;;;;;;4183184;28;20029;-65
2022/08/20 10:26:18;;;;;;;3.20;1.95;;;;;;;;;;4183509;28;20037;-65
2022/08/20 10:28:18;;;;;;;1.80;1.70;;;;;;;;;;4183517;28;20033;-65
2022/08/20 10:30:20;;;;;;;2.00;1.90;;;;;;;;;;4182975;28;20048;-65
2022/08/20 10:32:21;;;;;;;1.80;1.70;;;;;;;;;;4182233;28;20105;-63
2022/08/20 10:34:22;;;;;;;2.17;1.98;;;;;;;;;;4183389;28;20032;-66
2022/08/20 10:36:23;;;;;;;1.83;1.63;;;;;;;;;;4183381;28;20029;-66
2022/08/20 10:38:24;;;;;;;2.63;2.20;;;;;;;;;;4183146;28;20087;-64
2022/08/20 10:40:25;;;;;;;1.67;1.58;;;;;;;;;;4182415;28;20044;-65
2022/08/20 10:42:26;;;;;;;2.03;1.92;;;;;;;;;;4183059;28;20473;-65
2022/08/20 10:44:27;;;;;;;1.75;1.65;;;;;;;;;;4183133;28;20113;-65
2022/08/20 10:46:28;;;;;;;1.92;1.83;;;;;;;;;;4182621;28;20029;-65
2022/08/20 10:48:28;;;;;;;1.90;1.80;;;;;;;;;;4183109;28;20065;-65
2022/08/20 10:50:29;;;;;;;1.85;1.67;;;;;;;;;;4182728;28;20049;-65
2022/08/20 10:52:33;;;;;;;2.30;2.17;;;;;;;;;;4182814;28;20534;-65
2022/08/20 10:54:40;;;;;;;2.20;2.00;;;;;;;;;;4181631;28;20102;-65
2022/08/20 10:56:41;;;;;;;2.22;2.03;;;;;;;;;;4182142;28;20049;-64
2022/08/20 10:58:42;;;;;;;2.00;1.90;;;;;;;;;;4182599;28;20091;-65
2022/08/20 11:00:44;;;;;;;2.22;1.95;;;;;;;;;;4181437;28;20512;-65
2022/08/20 11:02:45;;;;;;;1.73;1.63;;;;;;;;;;4183162;28;20391;-65
2022/08/20 11:04:53;;;;;;;2.05;1.85;;;;;;;;;;4183297;28;20052;-65
2022/08/20 11:06:53;;;;;;;2.42;2.22;;;;;;;;;;4182032;28;20538;-65
2022/08/20 11:08:54;;;;;;;2.67;1.80;;;;;;;;;;4182583;28;20029;-65
2022/08/20 11:10:55;;;;;;;1.77;1.60;;;;;;;;;;4182215;28;20136;-66
2022/08/20 11:12:56;;;;;;;2.20;2.00;;;;;;;;;;4181991;28;20099;-65
2022/08/20 11:14:57;;;;;;;2.00;1.80;;;;;;;;;;4181657;28;20107;-65
2022/08/20 11:17:00;;;;;;;2.22;1.95;;;;;;;;;;4182591;28;20033;-65
2022/08/20 11:19:01;;;;;;;1.85;1.75;;;;;;;;;;4183154;28;20411;-64
2022/08/20 11:21:05;;;;;;;2.55;2.17;;;;;;;;;;4182104;28;20108;-65
2022/08/20 11:23:06;;;;;;;3.10;2.17;;;;;;;;;;4182542;28;20033;-65
2022/08/20 11:25:09;;;;;;;1.92;1.80;;;;;;;;;;4182456;28;20381;-65
2022/08/20 11:27:14;;;;;;;1.90;1.80;;;;;;;;;;4181274;28;20033;-65
2022/08/20 11:29:16;;;;;;;1.88;1.75;;;;;;;;;;4182707;28;20487;-65
2022/08/20 11:31:16;;;;;;;1.88;1.77;;;;;;;;;;4181976;28;20420;-65
2022/08/20 11:33:20;;;;;;;2.10;1.90;;;;;;;;;;4182759;28;20032;-65
2022/08/20 11:35:22;;;;;;;1.90;1.80;;;;;;;;;;4182219;28;20499;-64
2022/08/20 11:37:23;;;;;;;2.00;1.80;;;;;;;;;;4182729;28;20021;-65
2022/08/20 11:39:27;;;;;;;1.95;1.80;;;;;;;;;;4182650;28;20472;-65
2022/08/20 11:41:28;;;;;;;2.33;2.13;;;;;;;;;;4181867;28;20098;-65
2022/08/20 11:43:29;;;;;;;1.98;1.88;;;;;;;;;;4182080;28;20037;-65
2022/08/20 11:45:32;;;;;;;2.25;2.05;;;;;;;;;;4182152;28;20099;-65
2022/08/20 11:47:35;;;;;;;2.30;2.10;;;;;;;;;;4182150;28;20063;-65
2022/08/20 11:49:36;;;;;;;1.83;1.73;;;;;;;;;;4181971;28;20420;-65
2022/08/20 11:51:37;;;;;;;2.08;1.92;;;;;;;;;;4181849;28;20090;-65
2022/08/20 11:53:40;;;;;;;2.13;2.00;;;;;;;;;;4181905;28;20455;-65
2022/08/20 11:55:43;;;;;;;1.95;1.85;;;;;;;;;;4182021;28;20037;-64
2022/08/20 11:57:46;;;;;;;1.83;1.73;;;;;;;;;;4182427;28;20025;-65
2022/08/20 11:59:54;;;;;;;1.85;1.75;;;;;;;;;;4181775;28;20071;-65
2022/08/20 12:01:56;;;;;;;2.00;1.80;;;;;;;;;;4181891;28;20091;-65
2022/08/20 12:03:57;;;;;;;2.10;1.90;;;;;;;;;;4181843;28;20045;-65
2022/08/20 12:05:58;;;;;;;2.17;1.98;;;;;;;;;;4181780;28;20037;-65
2022/08/20 12:07:59;;;;;;;1.95;1.85;;;;;;;;;;4181720;28;20033;-66
2022/08/20 12:10:00;;;;;;;1.95;1.85;;;;;;;;;;4181536;28;20029;-65
2022/08/20 12:12:01;;;;;;;1.90;1.80;;;;;;;;;;4181745;28;20120;-65
2022/08/20 12:14:02;;;;;;;2.97;2.03;;;;;;;;;;4181699;28;20087;-65
2022/08/20 12:16:03;;;;;;;1.80;1.70;;;;;;;;;;4181704;28;20037;-65
2022/08/20 12:18:06;;;;;;;2.13;1.92;;;;;;;;;;4181693;28;20087;-64
2022/08/20 12:20:08;;;;;;;2.15;1.85;;;;;;;;;;4181954;28;20082;-65
2022/08/20 12:22:09;;;;;;;1.98;1.77;;;;;;;;;;4181907;28;20376;-65